Main page
METAR-TAF:

METAR-TAF

Airports :

Nadi International Airport

Nadi, Fiji

latitude: 17-45S, longitude: 177-27E, elevation: 13 m

Current weather observation

The report was made 9 minutes ago, at 02:00 UTC
Wind 11 kt from the West/Northwest
Temperature 30°C
Humidity 59%
Pressure 1008 hPa
Visibility 10 km or more
Few clouds at a height of 2800 ft

METAR: NFFN 220200Z 30011KT 9999 FEW028 30/21 Q1008 NOSIG

Time: 14:09 (02:09 UTC)

Forecast

The report was made 2 hours and 46 minutes ago, at 23:23 UTC
Forecast valid from 22 at 00 UTC to 22 at 24 UTC
Wind 7 kt from the West
Visibility 10 km or more
Few clouds at a height of 3000 ft
Becoming
from 22 at 02 UTC to 22 at 04 UTC
Wind 12 kt from the South/Southwest
Becoming
from 22 at 07 UTC to 22 at 09 UTC
Wind 5 kt from the South
Becoming
from 22 at 22 UTC to 22 at 24 UTC
Wind 8 kt from the West

TAF: NFFN 212323Z 2200/2224 28007KT 9999 FEW030 BECMG 2202/2204 20012KT BECMG 2207/2209 17005KT BECMG 2222/2224 28008KT

Weather observations and forecasts of more than 4000 airports (METAR and TAF reports).

The available stations are represented by yellow and red dots on the map.

Hover mouse over dot to see the name of the station.

Then click to see weather observations and forecasts.

To change the map : click on the green buttons with a black cross to zoom in, on the green button with a dash to zoom out, or on the green arrows for adjacent maps.


METAR-TAF: